createdAt,value
2022-08-26T00:01:56.688Z,102011.78
2022-08-26T00:04:26.209Z,102015.47
2022-08-26T00:06:56.499Z,102011.06
2022-08-26T00:09:25.247Z,102014.84
2022-08-26T00:11:53.910Z,102019.38
2022-08-26T00:14:24.169Z,102015.78
2022-08-26T00:16:56.504Z,102010.50
2022-08-26T00:19:24.538Z,102010.84
2022-08-26T00:21:53.412Z,101981.56
2022-08-26T00:24:23.016Z,102005.78
2022-08-26T00:26:51.791Z,102016.34
2022-08-26T00:29:21.236Z,102007.50
2022-08-26T00:31:49.543Z,102006.78
2022-08-26T00:34:19.559Z,101994.38
2022-08-26T00:36:47.872Z,101994.47
2022-08-26T00:39:20.148Z,101988.34
2022-08-26T00:41:50.103Z,101994.69
2022-08-26T00:44:19.561Z,101993.00
2022-08-26T00:46:50.460Z,101985.84
2022-08-26T00:49:23.045Z,101987.81
2022-08-26T00:51:55.027Z,101992.34
2022-08-26T00:54:28.722Z,101979.00
2022-08-26T00:57:01.836Z,101991.47
2022-08-26T00:59:32.944Z,101988.16
2022-08-26T01:02:02.803Z,101980.16
2022-08-26T01:04:33.451Z,101985.56
2022-08-26T01:07:01.593Z,101983.88
2022-08-26T01:09:31.364Z,101988.50
2022-08-26T01:12:03.512Z,101988.50
2022-08-26T01:14:34.371Z,101979.56
2022-08-26T01:17:07.436Z,101977.94
2022-08-26T01:19:43.535Z,101979.66
2022-08-26T01:22:18.217Z,101971.69
2022-08-26T01:24:48.958Z,101963.69
2022-08-26T01:27:20.625Z,101963.69
2022-08-26T01:29:50.481Z,101960.25
2022-08-26T01:32:23.387Z,101964.69
2022-08-26T01:34:52.766Z,101962.94
2022-08-26T01:37:24.140Z,101963.94
2022-08-26T01:39:55.747Z,101962.94
2022-08-26T01:42:27.336Z,101973.88
2022-08-26T01:45:02.014Z,101963.06
2022-08-26T01:47:32.021Z,101964.91
2022-08-26T01:50:03.986Z,101958.66
2022-08-26T01:52:35.486Z,101954.22
2022-08-26T01:55:07.389Z,101926.69
2022-08-26T01:57:36.968Z,101952.50
2022-08-26T02:00:08.646Z,101955.31
2022-08-26T02:02:40.473Z,101950.91
2022-08-26T02:05:15.673Z,101953.47
2022-08-26T02:07:45.221Z,101933.56
2022-08-26T02:10:14.971Z,101948.22
2022-08-26T02:12:43.188Z,101943.69
2022-08-26T02:15:13.652Z,101939.25
2022-08-26T02:17:44.490Z,101940.22
2022-08-26T02:20:15.027Z,101934.81
2022-08-26T02:22:45.480Z,101927.72
2022-08-26T02:25:20.927Z,101932.03
2022-08-26T02:27:49.238Z,101939.38
2022-08-26T02:30:20.137Z,101932.97
2022-08-26T02:32:49.618Z,101933.97
2022-08-26T02:35:20.316Z,101922.31
2022-08-26T02:37:49.446Z,101920.59
2022-08-26T02:40:22.557Z,101881.41
2022-08-26T02:42:53.001Z,101911.75
2022-08-26T02:45:24.750Z,101914.22
2022-08-26T02:47:53.421Z,101912.41
2022-08-26T02:50:22.237Z,101907.00
2022-08-26T02:52:50.200Z,101911.41
2022-08-26T02:55:20.002Z,101909.44
2022-08-26T02:57:48.065Z,101912.28
2022-08-26T03:00:17.512Z,101902.44
2022-08-26T03:02:46.284Z,101910.44
2022-08-26T03:05:14.460Z,101913.16
2022-08-26T03:07:43.849Z,101914.09
2022-08-26T03:10:13.613Z,101909.56
2022-08-26T03:12:48.111Z,101911.31
2022-08-26T03:15:18.434Z,101906.75
2022-08-26T03:17:48.148Z,101904.91
2022-08-26T03:20:17.399Z,101868.00
2022-08-26T03:22:46.685Z,101903.22
2022-08-26T03:25:17.646Z,101905.06
2022-08-26T03:27:47.293Z,101893.75
2022-08-26T03:30:33.520Z,101905.06
2022-08-26T03:33:01.999Z,101894.34
2022-08-26T03:35:30.399Z,101897.94
2022-08-26T03:37:58.477Z,101895.13
2022-08-26T03:40:29.106Z,101886.16
2022-08-26T03:42:58.596Z,101895.13
2022-08-26T03:45:27.937Z,101891.66
2022-08-26T03:47:56.114Z,101891.56
2022-08-26T03:50:27.090Z,101885.44
2022-08-26T03:52:56.019Z,101881.00
2022-08-26T03:55:25.665Z,101879.19
2022-08-26T03:57:55.828Z,101883.69
2022-08-26T04:00:25.573Z,101883.69
2022-08-26T04:02:53.667Z,101882.84
2022-08-26T04:05:23.635Z,101878.44
2022-08-26T04:07:52.410Z,101874.75
2022-08-26T04:10:29.253Z,101881.97
2022-08-26T04:12:58.703Z,101877.56
2022-08-26T04:15:28.924Z,101878.31
2022-08-26T04:17:57.341Z,101877.44
2022-08-26T04:20:25.912Z,101875.59
2022-08-26T04:22:54.007Z,101870.22
2022-08-26T04:25:22.564Z,101869.25
2022-08-26T04:27:52.438Z,101875.47
2022-08-26T04:30:21.251Z,101872.78
2022-08-26T04:32:51.031Z,101875.47
2022-08-26T04:35:22.784Z,101870.09
2022-08-26T04:37:54.195Z,101880.88
2022-08-26T04:40:22.224Z,101882.59
2022-08-26T04:42:50.293Z,101876.34
2022-08-26T04:45:19.228Z,101865.69
2022-08-26T04:47:56.427Z,101868.03
2022-08-26T04:50:26.675Z,101872.47
2022-08-26T04:52:55.373Z,101876.75
2022-08-26T04:55:38.201Z,101875.78
2022-08-26T04:58:10.367Z,101876.63
2022-08-26T05:00:39.492Z,101846.69
2022-08-26T05:03:10.305Z,101874.56
2022-08-26T05:05:40.888Z,101863.66
2022-08-26T05:08:08.956Z,101862.56
2022-08-26T05:10:40.925Z,101870.44
2022-08-26T05:13:11.211Z,101868.69
2022-08-26T05:15:40.237Z,101865.16
2022-08-26T05:18:11.232Z,101867.59
2022-08-26T05:20:41.162Z,101841.69
2022-08-26T05:23:09.571Z,101862.84
2022-08-26T05:25:39.636Z,101859.03
2022-08-26T05:28:07.803Z,101835.94
2022-08-26T05:30:36.132Z,101865.81
2022-08-26T05:33:04.393Z,101861.28
2022-08-26T05:35:34.476Z,101863.75
2022-08-26T05:38:03.705Z,101860.06
2022-08-26T05:40:36.380Z,101861.66
2022-08-26T05:43:08.098Z,101861.78
2022-08-26T05:45:42.334Z,101862.75
2022-08-26T05:48:15.198Z,101866.31
2022-08-26T05:50:48.768Z,101861.78
2022-08-26T05:53:20.768Z,101835.22
2022-08-26T05:55:52.652Z,101869.16
2022-08-26T05:58:22.466Z,101866.44
2022-08-26T06:00:58.942Z,101868.16
2022-08-26T06:03:27.689Z,101861.16
2022-08-26T06:05:57.033Z,101864.72
2022-08-26T06:08:25.656Z,101866.69
2022-08-26T06:10:56.262Z,101868.28
2022-08-26T06:13:26.839Z,101869.16
2022-08-26T06:15:56.560Z,101869.16
2022-08-26T06:18:32.530Z,101867.41
2022-08-26T06:21:03.318Z,101865.47
2022-08-26T06:23:48.772Z,101862.75
2022-08-26T06:26:18.256Z,101858.34
2022-08-26T06:28:46.316Z,101855.66
2022-08-26T06:31:15.846Z,101851.00
2022-08-26T06:33:44.228Z,101856.41
2022-08-26T06:36:19.447Z,101857.13
2022-08-26T06:38:48.676Z,101795.63
2022-08-26T06:41:18.018Z,101823.88
2022-08-26T06:43:46.264Z,101825.47
2022-08-26T06:46:17.294Z,101815.19
2022-08-26T06:48:45.752Z,101817.88
2022-08-26T06:51:16.636Z,101814.13
2022-08-26T06:53:48.303Z,101818.53
2022-08-26T06:56:19.270Z,101815.84
2022-08-26T06:58:47.649Z,101814.88
2022-08-26T07:01:17.199Z,101822.75
2022-08-26T07:03:47.072Z,101819.19
2022-08-26T07:06:18.545Z,101805.25
2022-08-26T07:08:48.189Z,101824.34
2022-08-26T07:11:16.986Z,101826.16
2022-08-26T07:13:45.066Z,101824.34
2022-08-26T07:16:16.908Z,101819.66
2022-08-26T07:18:45.420Z,101822.38
2022-08-26T07:21:16.649Z,101819.66
2022-08-26T07:23:46.399Z,101823.25
2022-08-26T07:26:18.493Z,101825.81
2022-08-26T07:28:48.861Z,101833.03
2022-08-26T07:31:17.781Z,101819.78
2022-08-26T07:33:46.805Z,101829.38
2022-08-26T07:36:15.949Z,101817.69
2022-08-26T07:38:45.255Z,101803.94
2022-08-26T07:41:15.197Z,101821.13
2022-08-26T07:43:45.529Z,101817.47
2022-08-26T07:46:18.565Z,101822.00
2022-08-26T07:48:56.389Z,101820.16
2022-08-26T07:51:24.976Z,101824.69
2022-08-26T07:53:54.243Z,101826.44
2022-08-26T07:56:23.406Z,101828.25
2022-08-26T07:58:52.977Z,101826.28
2022-08-26T08:01:21.106Z,101819.16
2022-08-26T08:03:51.589Z,101820.03
2022-08-26T08:06:20.020Z,101823.59
2022-08-26T08:08:50.744Z,101819.16
2022-08-26T08:11:21.123Z,101818.34
2022-08-26T08:13:49.790Z,101784.56
2022-08-26T08:16:26.271Z,101799.69
2022-08-26T08:18:54.545Z,101802.13
2022-08-26T08:21:24.346Z,101808.38
2022-08-26T08:23:53.669Z,101806.53
2022-08-26T08:26:22.188Z,101806.44
2022-08-26T08:28:50.640Z,101795.75
2022-08-26T08:31:45.108Z,101778.19
2022-08-26T08:34:12.981Z,101800.28
2022-08-26T08:36:40.977Z,101811.06
2022-08-26T08:39:09.773Z,101809.22
2022-08-26T08:41:49.406Z,101801.88
2022-08-26T08:46:57.752Z,101797.34
2022-08-26T08:49:28.347Z,101792.06
2022-08-26T08:52:02.492Z,101793.75
2022-08-26T08:54:33.943Z,101793.03
2022-08-26T08:57:07.257Z,101792.94
2022-08-26T08:59:38.531Z,101784.94
2022-08-26T09:02:19.381Z,101781.13
2022-08-26T09:05:04.520Z,101784.69
2022-08-26T09:07:37.759Z,101778.56
2022-08-26T09:10:24.140Z,101779.31
2022-08-26T09:12:53.240Z,101755.13
2022-08-26T09:15:27.441Z,101759.78
2022-08-26T09:18:09.550Z,101771.34
2022-08-26T09:20:49.828Z,101764.06
2022-08-26T09:23:19.173Z,101756.09
2022-08-26T09:25:50.127Z,101760.53
2022-08-26T09:28:20.014Z,101765.94
2022-08-26T09:30:59.942Z,101757.84
2022-08-26T09:33:29.884Z,101755.13
2022-08-26T09:38:53.868Z,101746.91
2022-08-26T09:41:31.632Z,101749.59
2022-08-26T09:44:18.031Z,101733.63
2022-08-26T09:46:55.317Z,101732.53
2022-08-26T09:49:36.116Z,101743.22
2022-08-26T09:52:15.538Z,101740.63
2022-08-26T09:54:46.166Z,101728.13
2022-08-26T09:57:25.918Z,101739.66
2022-08-26T09:59:54.277Z,101727.28
2022-08-26T10:02:47.954Z,101733.41
2022-08-26T10:05:30.581Z,101713.66
2022-08-26T10:08:00.246Z,101724.56
2022-08-26T10:10:36.725Z,101726.16
2022-08-26T10:13:10.374Z,101729.84
2022-08-26T10:15:50.679Z,101727.03
2022-08-26T10:18:24.713Z,101736.97
2022-08-26T10:20:58.905Z,101733.28
2022-08-26T10:23:32.766Z,101724.34
2022-08-26T10:26:09.660Z,101706.41
2022-08-26T10:28:44.771Z,101727.91
2022-08-26T10:31:28.852Z,101727.13
2022-08-26T10:34:00.346Z,101725.44
2022-08-26T10:37:14.681Z,101725.19
2022-08-26T10:39:46.027Z,101713.63
2022-08-26T10:42:23.035Z,101712.66
2022-08-26T10:44:58.547Z,101702.13
2022-08-26T10:47:31.834Z,101709.00
2022-08-26T10:50:03.293Z,101708.13
2022-08-26T10:52:43.472Z,101707.03
2022-08-26T10:55:17.881Z,101701.72
2022-08-26T10:57:56.489Z,101704.44
2022-08-26T11:00:48.064Z,101704.44
2022-08-26T11:03:31.189Z,101695.50
2022-08-26T11:06:23.075Z,101699.91
2022-08-26T11:08:52.712Z,101689.34
2022-08-26T11:11:45.367Z,101695.50
2022-08-26T11:14:53.522Z,101685.66
2022-08-26T11:17:58.385Z,101681.25
2022-08-26T11:20:39.122Z,101681.13
2022-08-26T11:23:50.520Z,101674.00
2022-08-26T11:26:35.652Z,101679.53
2022-08-26T11:29:12.066Z,101671.19
2022-08-26T11:31:57.423Z,101660.50
2022-08-26T11:34:56.218Z,101662.97
2022-08-26T11:37:36.500Z,101658.53
2022-08-26T11:40:10.518Z,101627.53
2022-08-26T11:42:43.417Z,101656.69
2022-08-26T11:45:20.536Z,101653.03
2022-08-26T11:47:50.058Z,101645.78
2022-08-26T11:50:21.596Z,101644.78
2022-08-26T11:52:54.875Z,101644.78
2022-08-26T11:55:24.246Z,101644.94
2022-08-26T11:57:55.445Z,101641.22
2022-08-26T12:00:26.506Z,101637.56
2022-08-26T12:02:56.053Z,101638.41
2022-08-26T12:05:30.963Z,101631.28
2022-08-26T12:08:07.140Z,101627.63
2022-08-26T12:10:36.821Z,101628.59
2022-08-26T12:13:07.292Z,101628.47
2022-08-26T12:15:36.618Z,101622.22
2022-08-26T12:18:28.741Z,101623.09
2022-08-26T12:20:59.820Z,101620.50
2022-08-26T12:23:37.873Z,101617.69
2022-08-26T12:26:10.473Z,101614.97
2022-08-26T12:28:44.725Z,101618.41
2022-08-26T12:31:13.271Z,101595.84
2022-08-26T12:33:47.013Z,101609.59
2022-08-26T12:36:22.962Z,101606.75
2022-08-26T12:38:51.139Z,101605.88
2022-08-26T12:41:48.183Z,101610.16
2022-08-26T12:44:42.253Z,101602.22
2022-08-26T12:47:41.784Z,101603.44
2022-08-26T12:50:19.661Z,101592.38
2022-08-26T12:52:57.521Z,101592.28
2022-08-26T12:55:35.540Z,101594.09
2022-08-26T12:58:29.640Z,101580.59
2022-08-26T13:00:59.423Z,101591.41
2022-08-26T13:03:43.429Z,101586.72
2022-08-26T13:06:27.944Z,101586.88
2022-08-26T13:08:59.057Z,101594.97
2022-08-26T13:11:31.552Z,101584.03
2022-08-26T13:14:02.200Z,101588.69
2022-08-26T13:16:35.563Z,101587.69
2022-08-26T13:19:10.374Z,101586.59
2022-08-26T13:21:44.722Z,101576.91
2022-08-26T13:24:15.097Z,101585.75
2022-08-26T13:26:45.718Z,101585.75
2022-08-26T13:29:14.244Z,101586.59
2022-08-26T13:31:44.995Z,101582.06
2022-08-26T13:34:15.695Z,101578.47
2022-08-26T13:36:45.195Z,101587.44
2022-08-26T13:39:13.996Z,101577.50
2022-08-26T13:41:42.426Z,101572.13
2022-08-26T13:44:11.519Z,101572.97
2022-08-26T13:46:39.566Z,101580.09
2022-08-26T13:49:08.285Z,101542.69
2022-08-26T13:51:36.296Z,101563.03
2022-08-26T13:54:06.572Z,101553.34
2022-08-26T13:56:35.297Z,101555.66
2022-08-26T13:59:03.449Z,101553.09
2022-08-26T14:01:33.172Z,101549.41
2022-08-26T14:04:03.135Z,101546.69
2022-08-26T14:06:31.495Z,101539.84
2022-08-26T14:08:59.837Z,101538.59
2022-08-26T14:11:29.523Z,101550.13
2022-08-26T14:14:07.104Z,101545.72
2022-08-26T14:16:38.768Z,101542.31
2022-08-26T14:19:26.720Z,101540.31
2022-08-26T14:21:54.695Z,101538.47
2022-08-26T14:24:22.668Z,101540.31
2022-08-26T14:26:51.983Z,101530.25
2022-08-26T14:29:19.978Z,101534.66
2022-08-26T14:31:48.362Z,101535.66
2022-08-26T14:34:16.433Z,101540.06
2022-08-26T14:36:44.341Z,101534.66
2022-08-26T14:39:14.678Z,101536.50
2022-08-26T14:41:53.923Z,101540.78
2022-08-26T14:44:27.934Z,101540.91
2022-08-26T14:46:56.442Z,101545.47
2022-08-26T14:49:27.271Z,101540.06
2022-08-26T14:51:56.408Z,101543.59
2022-08-26T14:54:23.345Z,101537.38
2022-08-26T14:56:53.892Z,101532.78
2022-08-26T14:59:25.459Z,101538.09
2022-08-26T15:01:54.394Z,101493.53
2022-08-26T15:04:23.166Z,101517.00
2022-08-26T15:06:52.034Z,101521.03
2022-08-26T15:09:20.010Z,101526.44
2022-08-26T15:11:48.512Z,101522.75
2022-08-26T15:14:19.640Z,101514.66
2022-08-26T15:16:50.215Z,101521.75
2022-08-26T15:19:18.795Z,101520.88
2022-08-26T15:21:47.302Z,101517.19
2022-08-26T15:24:17.927Z,101512.66
2022-08-26T15:26:46.741Z,101515.38
2022-08-26T15:29:15.106Z,101506.25
2022-08-26T15:31:43.389Z,101505.44
2022-08-26T15:34:16.728Z,101502.59
2022-08-26T15:36:46.319Z,101499.03
2022-08-26T15:39:15.917Z,101493.75
2022-08-26T15:41:44.050Z,101487.50
2022-08-26T15:44:13.769Z,101488.94
2022-08-26T15:46:42.159Z,101481.84
2022-08-26T15:49:18.549Z,101478.13
2022-08-26T15:51:50.462Z,101482.56
2022-08-26T15:54:21.007Z,101490.66
2022-08-26T15:56:52.084Z,101478.13
2022-08-26T15:59:22.222Z,101472.72
2022-08-26T16:01:50.648Z,101469.19
2022-08-26T16:04:18.725Z,101464.63
2022-08-26T16:06:51.537Z,101458.25
2022-08-26T16:09:20.301Z,101446.59
2022-08-26T16:11:48.294Z,101459.13
2022-08-26T16:14:16.569Z,101459.13
2022-08-26T16:16:44.601Z,101451.88
2022-08-26T16:19:12.649Z,101442.75
2022-08-26T16:21:41.780Z,101448.16
2022-08-26T16:24:11.957Z,101443.63
2022-08-26T16:26:41.894Z,101443.78
2022-08-26T16:29:13.870Z,101443.78
2022-08-26T16:31:42.841Z,101447.59
2022-08-26T16:34:11.556Z,101451.00
2022-08-26T16:36:40.510Z,101451.88
2022-08-26T16:39:09.796Z,101440.06
2022-08-26T16:41:39.448Z,101434.09
2022-08-26T16:44:08.854Z,101440.06
2022-08-26T16:46:37.007Z,101447.19
2022-08-26T16:49:05.095Z,101438.22
2022-08-26T16:51:37.929Z,101436.38
2022-08-26T16:54:07.910Z,101446.22
2022-08-26T16:56:36.961Z,101447.19
2022-08-26T16:59:07.318Z,101448.91
2022-08-26T17:01:35.791Z,101446.31
2022-08-26T17:04:04.336Z,101441.66
2022-08-26T17:06:32.655Z,101443.50
2022-08-26T17:09:00.636Z,101428.13
2022-08-26T17:11:28.631Z,101442.50
2022-08-26T17:13:57.025Z,101434.53
2022-08-26T17:16:27.248Z,101441.53
2022-08-26T17:18:56.225Z,101438.81
2022-08-26T17:21:24.265Z,101438.81
2022-08-26T17:23:52.233Z,101444.22
2022-08-26T17:26:20.261Z,101439.81
2022-08-26T17:28:48.226Z,101441.53
2022-08-26T17:31:16.296Z,101445.91
2022-08-26T17:33:48.857Z,101444.22
2022-08-26T17:36:21.229Z,101445.09
2022-08-26T17:38:50.633Z,101445.47
2022-08-26T17:41:22.264Z,101446.94
2022-08-26T17:43:50.460Z,101446.94
2022-08-26T17:46:18.500Z,101448.63
2022-08-26T17:48:48.326Z,101446.78
2022-08-26T17:51:19.229Z,101445.91
2022-08-26T17:53:48.655Z,101448.63
2022-08-26T17:56:19.812Z,101442.41
2022-08-26T17:58:51.599Z,101447.66
2022-08-26T18:01:20.532Z,101442.25
2022-08-26T18:03:50.424Z,101445.81
2022-08-26T18:06:19.111Z,101439.69
2022-08-26T18:08:47.151Z,101444.94
2022-08-26T18:11:18.398Z,101445.81
2022-08-26T18:13:47.613Z,101439.53
2022-08-26T18:16:16.861Z,101443.22
2022-08-26T18:18:45.143Z,101447.66
2022-08-26T18:21:16.732Z,101450.09
2022-08-26T18:23:45.604Z,101448.50
2022-08-26T18:26:18.196Z,101445.56
2022-08-26T18:28:46.226Z,101442.09
2022-08-26T18:31:15.295Z,101429.25
2022-08-26T18:33:44.136Z,101444.69
2022-08-26T18:36:19.541Z,101444.53
2022-08-26T18:38:48.048Z,101444.81
2022-08-26T18:41:20.729Z,101447.38
2022-08-26T18:43:50.379Z,101434.84
2022-08-26T18:46:20.187Z,101410.16
2022-08-26T18:48:50.712Z,101436.44
2022-08-26T18:51:23.368Z,101437.28
2022-08-26T18:53:51.977Z,101438.28
2022-08-26T18:56:20.022Z,101444.53
2022-08-26T18:58:48.527Z,101451.66
2022-08-26T19:01:17.625Z,101439.03
2022-08-26T19:03:46.392Z,101444.44
2022-08-26T19:06:15.695Z,101439.28
2022-08-26T19:08:46.114Z,101446.97
2022-08-26T19:11:32.063Z,101446.25
2022-08-26T19:14:03.446Z,101420.59
2022-08-26T19:16:32.113Z,101435.31
2022-08-26T19:19:01.489Z,101436.31
2022-08-26T19:21:30.700Z,101432.63
2022-08-26T19:24:02.670Z,101436.09
2022-08-26T19:26:31.540Z,101431.75
2022-08-26T19:29:00.153Z,101428.34
2022-08-26T19:31:28.584Z,101432.63
2022-08-26T19:33:58.060Z,101427.09
2022-08-26T19:36:26.788Z,101435.31
2022-08-26T19:38:55.867Z,101428.22
2022-08-26T19:41:37.254Z,101429.78
2022-08-26T19:44:08.261Z,101418.25
2022-08-26T19:49:10.483Z,101409.44
2022-08-26T19:51:38.682Z,101418.13
2022-08-26T19:54:07.118Z,101411.78
2022-08-26T19:56:36.619Z,101348.53
2022-08-26T19:59:04.913Z,101417.19
2022-08-26T20:01:32.965Z,101408.94
2022-08-26T20:04:01.168Z,101413.47
2022-08-26T20:06:29.190Z,101410.78
2022-08-26T20:08:57.283Z,101412.59
2022-08-26T20:11:25.833Z,101408.19
2022-08-26T20:13:55.346Z,101407.94
2022-08-26T20:16:23.481Z,101412.50
2022-08-26T20:19:08.756Z,101415.19
2022-08-26T20:21:39.817Z,101407.22
2022-08-26T20:24:09.909Z,101408.06
2022-08-26T20:26:39.878Z,101403.53
2022-08-26T20:29:11.383Z,101401.53
2022-08-26T20:31:40.415Z,101407.09
2022-08-26T20:34:08.448Z,101404.38
2022-08-26T20:36:36.502Z,101403.53
2022-08-26T20:39:05.417Z,101408.78
2022-08-26T20:41:33.617Z,101413.47
2022-08-26T20:44:01.957Z,101409.91
2022-08-26T20:46:31.487Z,101392.75
2022-08-26T20:48:59.485Z,101404.38
2022-08-26T20:51:28.757Z,101401.81
2022-08-26T20:53:56.894Z,101407.09
2022-08-26T20:56:25.017Z,101406.22
2022-08-26T20:58:55.225Z,101377.56
2022-08-26T21:01:25.983Z,101391.84
2022-08-26T21:03:56.866Z,101385.47
2022-08-26T21:06:24.950Z,101382.78
2022-08-26T21:08:52.982Z,101381.91
2022-08-26T21:11:21.506Z,101385.47
2022-08-26T21:14:04.449Z,101378.25
2022-08-26T21:16:36.029Z,101379.22
2022-08-26T21:19:06.400Z,101383.63
2022-08-26T21:21:35.348Z,101387.31
2022-08-26T21:24:03.859Z,101373.06
2022-08-26T21:26:31.996Z,101376.50
2022-08-26T21:29:02.291Z,101349.97
2022-08-26T21:31:31.947Z,101375.66
2022-08-26T21:34:00.691Z,101372.09
2022-08-26T21:36:30.193Z,101377.22
2022-08-26T21:38:58.274Z,101383.63
2022-08-26T21:41:27.682Z,101378.25
2022-08-26T21:43:59.217Z,101378.94
2022-08-26T21:46:29.611Z,101387.16
2022-08-26T21:49:00.123Z,101385.47
2022-08-26T21:51:31.904Z,101389.03
2022-08-26T21:54:01.729Z,101387.16
2022-08-26T21:56:32.520Z,101384.47
2022-08-26T21:59:01.353Z,101384.47
2022-08-26T22:01:34.937Z,101376.38
2022-08-26T22:04:06.864Z,101378.25
2022-08-26T22:06:42.331Z,101380.06
2022-08-26T22:09:11.325Z,101386.34
2022-08-26T22:11:39.439Z,101381.06
2022-08-26T22:14:07.657Z,101372.94
2022-08-26T22:16:35.734Z,101369.28
2022-08-26T22:19:03.796Z,101363.88
2022-08-26T22:21:32.153Z,101361.16
2022-08-26T22:24:01.685Z,101362.84
2022-08-26T22:26:32.607Z,101353.06
2022-08-26T22:29:02.444Z,101356.63
2022-08-26T22:31:37.571Z,101368.25
2022-08-26T22:34:07.387Z,101360.16
2022-08-26T22:36:35.560Z,101296.97
2022-08-26T22:39:06.820Z,101352.91
2022-08-26T22:41:38.464Z,101351.22
2022-08-26T22:44:06.495Z,101351.22
2022-08-26T22:46:35.044Z,101343.94
2022-08-26T22:49:04.588Z,101337.72
2022-08-26T22:51:33.388Z,101343.94
2022-08-26T22:54:01.677Z,101309.44
2022-08-26T22:56:31.224Z,101333.03
2022-08-26T22:58:59.163Z,101336.69
2022-08-26T23:01:27.538Z,101331.31
2022-08-26T23:03:55.539Z,101342.09
2022-08-26T23:06:23.597Z,101325.03
2022-08-26T23:08:53.120Z,101330.44
2022-08-26T23:11:21.096Z,101323.34
2022-08-26T23:13:50.440Z,101319.63
2022-08-26T23:16:18.543Z,101316.22
2022-08-26T23:18:47.065Z,101315.34
2022-08-26T23:21:15.232Z,101306.28
2022-08-26T23:23:44.326Z,101301.72
2022-08-26T23:26:17.449Z,101295.63
2022-08-26T23:28:45.828Z,101299.03
2022-08-26T23:31:15.392Z,101306.28
2022-08-26T23:34:00.716Z,101302.59
2022-08-26T23:36:31.036Z,101285.63
2022-08-26T23:39:03.236Z,101284.81
2022-08-26T23:41:31.216Z,101283.81
2022-08-26T23:44:03.286Z,101278.41
2022-08-26T23:46:33.253Z,101273.84
2022-08-26T23:49:01.493Z,101274.00
2022-08-26T23:51:46.954Z,101269.44
2022-08-26T23:54:16.349Z,101262.41
2022-08-26T23:56:44.860Z,101265.91
2022-08-26T23:59:12.828Z,101269.44
